sensor_id;sensor_type;location;lat;lon;timestamp;pressure;altitude;pressure_sealevel;temperature;humidity
72925;BME280;61070;50.794;7.054;2022-11-04T00:01:28;99672.22;;;10.60;92.47
72925;BME280;61070;50.794;7.054;2022-11-04T00:03:54;99668.00;;;10.53;91.28
72925;BME280;61070;50.794;7.054;2022-11-04T00:06:19;99686.72;;;10.46;92.85
72925;BME280;61070;50.794;7.054;2022-11-04T00:08:49;99686.53;;;10.53;92.73
72925;BME280;61070;50.794;7.054;2022-11-04T00:11:15;99688.66;;;10.40;92.95
72925;BME280;61070;50.794;7.054;2022-11-04T00:13:59;99693.94;;;10.40;94.32
72925;BME280;61070;50.794;7.054;2022-11-04T00:16:24;99697.75;;;10.30;94.42
72925;BME280;61070;50.794;7.054;2022-11-04T00:19:08;99689.94;;;10.25;93.78
72925;BME280;61070;50.794;7.054;2022-11-04T00:21:33;99704.97;;;10.25;93.06
72925;BME280;61070;50.794;7.054;2022-11-04T00:24:17;99705.06;;;10.18;95.20
72925;BME280;61070;50.794;7.054;2022-11-04T00:27:00;99701.63;;;10.16;94.62
72925;BME280;61070;50.794;7.054;2022-11-04T00:29:44;99711.31;;;10.16;93.92
72925;BME280;61070;50.794;7.054;2022-11-04T00:32:10;99710.78;;;10.03;94.93
72925;BME280;61070;50.794;7.054;2022-11-04T00:34:54;99719.50;;;10.07;94.79
72925;BME280;61070;50.794;7.054;2022-11-04T00:37:19;99722.97;;;10.10;94.85
72925;BME280;61070;50.794;7.054;2022-11-04T00:39:44;99717.13;;;9.96;95.60
72925;BME280;61070;50.794;7.054;2022-11-04T00:42:10;99720.59;;;10.00;95.99
72925;BME280;61070;50.794;7.054;2022-11-04T00:44:35;99722.50;;;9.93;95.40
72925;BME280;61070;50.794;7.054;2022-11-04T00:47:00;99731.47;;;9.87;97.21
72925;BME280;61070;50.794;7.054;2022-11-04T00:49:26;99736.72;;;9.89;97.29
72925;BME280;61070;50.794;7.054;2022-11-04T00:51:51;99750.72;;;9.92;98.11
72925;BME280;61070;50.794;7.054;2022-11-04T00:54:16;99738.50;;;9.88;98.54
72925;BME280;61070;50.794;7.054;2022-11-04T00:56:41;99751.69;;;9.90;99.36
72925;BME280;61070;50.794;7.054;2022-11-04T00:59:07;99763.13;;;9.90;99.36
72925;BME280;61070;50.794;7.054;2022-11-04T01:01:33;99756.09;;;9.89;98.66
72925;BME280;61070;50.794;7.054;2022-11-04T01:04:01;99756.97;;;9.90;99.15
72925;BME280;61070;50.794;7.054;2022-11-04T01:06:26;99747.34;;;9.87;98.78
72925;BME280;61070;50.794;7.054;2022-11-04T01:09:00;99758.06;;;9.81;99.21
72925;BME280;61070;50.794;7.054;2022-11-04T01:11:26;99756.31;;;9.80;99.67
72925;BME280;61070;50.794;7.054;2022-11-04T01:13:54;99764.44;;;9.73;99.16
72925;BME280;61070;50.794;7.054;2022-11-04T01:16:19;99760.25;;;9.62;98.97
72925;BME280;61070;50.794;7.054;2022-11-04T01:18:46;99775.25;;;9.62;98.53
72925;BME280;61070;50.794;7.054;2022-11-04T01:21:12;99774.44;;;9.60;97.57
72925;BME280;61070;50.794;7.054;2022-11-04T01:23:39;99776.34;;;9.90;96.30
72925;BME280;61070;50.794;7.054;2022-11-04T01:26:09;99775.28;;;9.60;97.41
72925;BME280;61070;50.794;7.054;2022-11-04T01:28:35;99781.59;;;9.55;97.62
72925;BME280;61070;50.794;7.054;2022-11-04T01:31:20;99784.72;;;9.72;95.43
72925;BME280;61070;50.794;7.054;2022-11-04T01:33:46;99793.75;;;9.63;95.72
72925;BME280;61070;50.794;7.054;2022-11-04T01:36:12;99806.94;;;9.65;95.88
72925;BME280;61070;50.794;7.054;2022-11-04T01:38:38;99800.78;;;9.65;94.64
72925;BME280;61070;50.794;7.054;2022-11-04T01:41:04;99805.44;;;9.53;95.80
72925;BME280;61070;50.794;7.054;2022-11-04T01:46:25;99806.63;;;9.40;96.87
72925;BME280;61070;50.794;7.054;2022-11-04T01:48:52;99806.00;;;9.26;97.93
72925;BME280;61070;50.794;7.054;2022-11-04T01:51:20;99805.06;;;9.28;97.94
72925;BME280;61070;50.794;7.054;2022-11-04T01:53:46;99808.00;;;9.15;99.44
72925;BME280;61070;50.794;7.054;2022-11-04T01:56:12;99811.47;;;9.18;99.26
72925;BME280;61070;50.794;7.054;2022-11-04T01:58:45;99810.97;;;8.99;100.00
72925;BME280;61070;50.794;7.054;2022-11-04T02:01:12;99805.75;;;8.96;100.00
72925;BME280;61070;50.794;7.054;2022-11-04T02:03:45;99808.34;;;8.99;100.00
72925;BME280;61070;50.794;7.054;2022-11-04T02:06:12;99802.72;;;9.15;98.57
72925;BME280;61070;50.794;7.054;2022-11-04T02:08:38;99802.75;;;9.13;98.30
72925;BME280;61070;50.794;7.054;2022-11-04T02:11:05;99809.97;;;9.05;98.17
72925;BME280;61070;50.794;7.054;2022-11-04T02:13:32;99797.28;;;9.22;96.76
72925;BME280;61070;50.794;7.054;2022-11-04T02:19:18;99793.19;;;9.08;96.57
72925;BME280;61070;50.794;7.054;2022-11-04T02:22:30;99792.44;;;9.01;97.30
72925;BME280;61070;50.794;7.054;2022-11-04T02:25:17;99790.13;;;8.86;98.08
72925;BME280;61070;50.794;7.054;2022-11-04T02:30:51;99799.16;;;8.74;98.29
72925;BME280;61070;50.794;7.054;2022-11-04T02:33:33;99795.44;;;8.83;97.38
72925;BME280;61070;50.794;7.054;2022-11-04T02:36:05;99789.00;;;8.97;96.88
72925;BME280;61070;50.794;7.054;2022-11-04T02:38:53;99789.31;;;8.81;97.32
72925;BME280;61070;50.794;7.054;2022-11-04T02:46:52;99788.59;;;8.74;97.16
72925;BME280;61070;50.794;7.054;2022-11-04T02:49:28;99780.91;;;8.62;97.19
72925;BME280;61070;50.794;7.054;2022-11-04T02:52:07;99781.59;;;8.70;97.21
72925;BME280;61070;50.794;7.054;2022-11-04T02:54:38;99784.28;;;8.68;95.30
72925;BME280;61070;50.794;7.054;2022-11-04T02:57:07;99779.16;;;8.61;96.56
72925;BME280;61070;50.794;7.054;2022-11-04T03:02:04;99788.84;;;8.59;96.01
72925;BME280;61070;50.794;7.054;2022-11-04T03:04:34;99784.34;;;8.65;94.50
72925;BME280;61070;50.794;7.054;2022-11-04T03:07:02;99783.50;;;8.63;94.65
72925;BME280;61070;50.794;7.054;2022-11-04T03:09:32;99787.00;;;8.65;94.94
72925;BME280;61070;50.794;7.054;2022-11-04T03:12:02;99783.41;;;8.68;94.50
72925;BME280;61070;50.794;7.054;2022-11-04T03:14:36;99783.72;;;8.53;94.92
72925;BME280;61070;50.794;7.054;2022-11-04T03:17:06;99776.69;;;8.52;94.87
72925;BME280;61070;50.794;7.054;2022-11-04T03:19:48;99774.06;;;8.52;95.24
72925;BME280;61070;50.794;7.054;2022-11-04T03:22:20;99766.38;;;8.39;95.76
72925;BME280;61070;50.794;7.054;2022-11-04T03:24:47;99769.84;;;8.41;95.79
72925;BME280;61070;50.794;7.054;2022-11-04T03:30:00;99766.47;;;8.32;96.35
72925;BME280;61070;50.794;7.054;2022-11-04T03:35:20;99765.72;;;8.24;97.21
72925;BME280;61070;50.794;7.054;2022-11-04T03:37:47;99779.06;;;8.14;97.54
72925;BME280;61070;50.794;7.054;2022-11-04T03:40:14;99776.44;;;8.13;97.59
72925;BME280;61070;50.794;7.054;2022-11-04T03:42:45;99783.56;;;8.09;97.27
72925;BME280;61070;50.794;7.054;2022-11-04T03:45:12;99782.72;;;8.07;97.90
72925;BME280;61070;50.794;7.054;2022-11-04T03:47:38;99794.06;;;8.11;97.60
72925;BME280;61070;50.794;7.054;2022-11-04T03:51:00;99788.78;;;8.11;97.33
72925;BME280;61070;50.794;7.054;2022-11-04T03:53:00;99788.88;;;8.06;98.14
72925;BME280;61070;50.794;7.054;2022-11-04T03:58:42;99773.19;;;7.99;98.29
72925;BME280;61070;50.794;7.054;2022-11-04T04:01:48;99763.31;;;8.10;96.74
72925;BME280;61070;50.794;7.054;2022-11-04T04:06:42;99749.91;;;8.22;95.10
72925;BME280;61070;50.794;7.054;2022-11-04T04:09:25;99744.63;;;8.22;95.40
72925;BME280;61070;50.794;7.054;2022-11-04T04:12:19;99749.19;;;8.12;95.51
72925;BME280;61070;50.794;7.054;2022-11-04T04:14:54;99760.84;;;8.01;97.09
72925;BME280;61070;50.794;7.054;2022-11-04T04:17:27;99759.19;;;7.95;97.25
72925;BME280;61070;50.794;7.054;2022-11-04T04:19:58;99773.44;;;7.83;97.81
72925;BME280;61070;50.794;7.054;2022-11-04T04:22:33;99780.50;;;7.80;98.13
72925;BME280;61070;50.794;7.054;2022-11-04T04:25:05;99778.91;;;7.71;98.63
72925;BME280;61070;50.794;7.054;2022-11-04T04:27:50;99784.19;;;7.68;98.55
72925;BME280;61070;50.794;7.054;2022-11-04T04:30:17;99786.09;;;7.60;99.73
72925;BME280;61070;50.794;7.054;2022-11-04T04:33:07;99787.00;;;7.59;99.89
72925;BME280;61070;50.794;7.054;2022-11-04T04:35:39;99788.00;;;7.49;100.00
72925;BME280;61070;50.794;7.054;2022-11-04T04:38:08;99793.28;;;7.49;100.00
72925;BME280;61070;50.794;7.054;2022-11-04T04:41:07;99791.59;;;7.43;100.00
72925;BME280;61070;50.794;7.054;2022-11-04T04:43:53;99796.84;;;7.45;100.00
72925;BME280;61070;50.794;7.054;2022-11-04T04:46:39;99790.81;;;7.35;100.00
72925;BME280;61070;50.794;7.054;2022-11-04T04:49:07;99790.88;;;7.30;100.00
72925;BME280;61070;50.794;7.054;2022-11-04T04:51:34;99788.31;;;7.24;100.00
72925;BME280;61070;50.794;7.054;2022-11-04T04:54:00;99796.25;;;7.23;100.00
72925;BME280;61070;50.794;7.054;2022-11-04T04:56:25;99804.88;;;7.34;100.00
72925;BME280;61070;50.794;7.054;2022-11-04T04:58:50;99798.03;;;7.21;100.00
72925;BME280;61070;50.794;7.054;2022-11-04T05:01:16;99802.47;;;7.17;100.00
72925;BME280;61070;50.794;7.054;2022-11-04T05:03:41;99806.66;;;7.32;100.00
72925;BME280;61070;50.794;7.054;2022-11-04T05:06:06;99803.31;;;7.21;100.00
72925;BME280;61070;50.794;7.054;2022-11-04T05:08:32;99800.63;;;7.25;100.00
72925;BME280;61070;50.794;7.054;2022-11-04T05:10:59;99805.63;;;7.44;100.00
72925;BME280;61070;50.794;7.054;2022-11-04T05:13:24;99803.13;;;7.35;100.00
72925;BME280;61070;50.794;7.054;2022-11-04T05:15:50;99797.06;;;7.29;100.00
72925;BME280;61070;50.794;7.054;2022-11-04T05:18:15;99789.22;;;7.23;100.00
72925;BME280;61070;50.794;7.054;2022-11-04T05:20:40;99782.19;;;7.24;100.00
72925;BME280;61070;50.794;7.054;2022-11-04T05:23:06;99783.84;;;7.31;100.00
72925;BME280;61070;50.794;7.054;2022-11-04T05:25:36;99783.06;;;7.26;100.00
72925;BME280;61070;50.794;7.054;2022-11-04T05:28:01;99776.88;;;7.28;100.00
72925;BME280;61070;50.794;7.054;2022-11-04T05:30:27;99784.47;;;7.50;100.00
72925;BME280;61070;50.794;7.054;2022-11-04T05:32:52;99779.47;;;7.32;100.00
72925;BME280;61070;50.794;7.054;2022-11-04T05:35:17;99777.72;;;7.30;100.00
72925;BME280;61070;50.794;7.054;2022-11-04T05:37:43;99780.34;;;7.30;100.00
72925;BME280;61070;50.794;7.054;2022-11-04T05:40:08;99782.88;;;7.40;100.00
72925;BME280;61070;50.794;7.054;2022-11-04T05:42:34;99784.88;;;7.21;100.00
72925;BME280;61070;50.794;7.054;2022-11-04T05:45:01;99780.59;;;7.14;100.00
72925;BME280;61070;50.794;7.054;2022-11-04T05:47:26;99777.06;;;7.15;100.00
72925;BME280;61070;50.794;7.054;2022-11-04T05:49:51;99787.59;;;7.15;100.00
72925;BME280;61070;50.794;7.054;2022-11-04T05:52:17;99779.75;;;7.09;100.00
72925;BME280;61070;50.794;7.054;2022-11-04T05:54:42;99788.53;;;7.09;100.00
72925;BME280;61070;50.794;7.054;2022-11-04T05:57:08;99787.72;;;7.04;100.00
72925;BME280;61070;50.794;7.054;2022-11-04T05:59:34;99797.41;;;7.04;100.00
72925;BME280;61070;50.794;7.054;2022-11-04T06:01:59;99804.28;;;7.14;100.00
72925;BME280;61070;50.794;7.054;2022-11-04T06:04:25;99813.13;;;7.08;100.00
72925;BME280;61070;50.794;7.054;2022-11-04T06:06:50;99812.31;;;7.03;100.00
72925;BME280;61070;50.794;7.054;2022-11-04T06:09:15;99817.56;;;7.01;100.00
72925;BME280;61070;50.794;7.054;2022-11-04T06:11:41;99814.97;;;7.03;100.00
72925;BME280;61070;50.794;7.054;2022-11-04T06:14:06;99820.03;;;7.18;100.00
72925;BME280;61070;50.794;7.054;2022-11-04T06:16:31;99828.72;;;7.23;100.00
72925;BME280;61070;50.794;7.054;2022-11-04T06:18:57;99835.00;;;7.13;100.00
72925;BME280;61070;50.794;7.054;2022-11-04T06:21:26;99828.97;;;7.02;100.00
72925;BME280;61070;50.794;7.054;2022-11-04T06:23:53;99830.72;;;7.06;100.00
72925;BME280;61070;50.794;7.054;2022-11-04T06:26:20;99824.66;;;6.96;100.00
72925;BME280;61070;50.794;7.054;2022-11-04T06:28:46;99830.91;;;6.88;100.00
72925;BME280;61070;50.794;7.054;2022-11-04T06:31:12;99834.44;;;6.85;100.00
72925;BME280;61070;50.794;7.054;2022-11-04T06:33:38;99827.50;;;6.78;100.00
72925;BME280;61070;50.794;7.054;2022-11-04T06:36:05;99838.03;;;6.80;100.00
72925;BME280;61070;50.794;7.054;2022-11-04T06:38:33;99853.00;;;6.73;100.00
72925;BME280;61070;50.794;7.054;2022-11-04T06:40:59;99846.78;;;6.82;100.00
72925;BME280;61070;50.794;7.054;2022-11-04T06:43:24;99853.75;;;6.84;100.00
72925;BME280;61070;50.794;7.054;2022-11-04T06:45:57;99852.84;;;6.87;100.00
72925;BME280;61070;50.794;7.054;2022-11-04T06:48:23;99858.09;;;6.88;100.00
72925;BME280;61070;50.794;7.054;2022-11-04T06:50:49;99862.34;;;7.00;100.00
72925;BME280;61070;50.794;7.054;2022-11-04T06:53:14;99873.72;;;7.05;100.00
72925;BME280;61070;50.794;7.054;2022-11-04T06:55:39;99868.34;;;7.16;100.00
72925;BME280;61070;50.794;7.054;2022-11-04T06:58:05;99870.03;;;7.20;100.00
72925;BME280;61070;50.794;7.054;2022-11-04T07:00:31;99874.41;;;7.22;100.00
72925;BME280;61070;50.794;7.054;2022-11-04T07:02:57;99881.41;;;7.23;100.00
72925;BME280;61070;50.794;7.054;2022-11-04T07:05:22;99883.22;;;7.20;100.00
72925;BME280;61070;50.794;7.054;2022-11-04T07:07:47;99884.97;;;7.19;100.00
72925;BME280;61070;50.794;7.054;2022-11-04T07:10:13;99889.31;;;7.25;100.00
72925;BME280;61070;50.794;7.054;2022-11-04T07:12:38;99895.34;;;7.33;100.00
72925;BME280;61070;50.794;7.054;2022-11-04T07:15:04;99888.28;;;7.37;100.00
72925;BME280;61070;50.794;7.054;2022-11-04T07:17:29;99893.47;;;7.43;100.00
72925;BME280;61070;50.794;7.054;2022-11-04T07:19:55;99897.81;;;7.47;100.00
72925;BME280;61070;50.794;7.054;2022-11-04T07:22:20;99908.31;;;7.51;100.00
72925;BME280;61070;50.794;7.054;2022-11-04T07:24:46;99916.09;;;7.62;100.00
72925;BME280;61070;50.794;7.054;2022-11-04T07:27:11;99937.13;;;7.65;100.00
72925;BME280;61070;50.794;7.054;2022-11-04T07:29:36;99938.81;;;7.72;100.00
72925;BME280;61070;50.794;7.054;2022-11-04T07:32:03;99939.66;;;7.74;100.00
72925;BME280;61070;50.794;7.054;2022-11-04T07:34:28;99947.50;;;7.77;100.00
72925;BME280;61070;50.794;7.054;2022-11-04T07:36:54;99936.13;;;7.74;100.00
72925;BME280;61070;50.794;7.054;2022-11-04T07:39:19;99939.66;;;7.73;100.00
72925;BME280;61070;50.794;7.054;2022-11-04T07:41:44;99936.94;;;7.79;100.00
72925;BME280;61070;50.794;7.054;2022-11-04T07:44:11;99936.91;;;7.80;100.00
72925;BME280;61070;50.794;7.054;2022-11-04T07:46:37;99935.16;;;7.81;100.00
72925;BME280;61070;50.794;7.054;2022-11-04T07:49:03;99940.38;;;7.85;100.00
72925;BME280;61070;50.794;7.054;2022-11-04T07:51:29;99942.94;;;7.90;100.00
72925;BME280;61070;50.794;7.054;2022-11-04T07:53:56;99943.78;;;7.95;100.00
72925;BME280;61070;50.794;7.054;2022-11-04T07:56:22;99935.84;;;7.97;100.00
72925;BME280;61070;50.794;7.054;2022-11-04T07:58:48;99930.47;;;8.01;100.00
72925;BME280;61070;50.794;7.054;2022-11-04T08:01:17;99933.94;;;8.06;100.00
72925;BME280;61070;50.794;7.054;2022-11-04T08:03:43;99927.78;;;8.07;100.00
72925;BME280;61070;50.794;7.054;2022-11-04T08:06:11;99936.47;;;8.15;100.00
72925;BME280;61070;50.794;7.054;2022-11-04T08:08:37;99935.53;;;8.18;100.00
72925;BME280;61070;50.794;7.054;2022-11-04T08:11:08;99938.91;;;8.26;100.00
72925;BME280;61070;50.794;7.054;2022-11-04T08:13:35;99941.47;;;8.32;100.00
72925;BME280;61070;50.794;7.054;2022-11-04T08:16:06;99937.91;;;8.36;100.00
72925;BME280;61070;50.794;7.054;2022-11-04T08:18:33;99949.31;;;8.40;100.00
72925;BME280;61070;50.794;7.054;2022-11-04T08:20:59;99950.91;;;8.52;100.00
72925;BME280;61070;50.794;7.054;2022-11-04T08:23:26;99955.19;;;8.57;100.00
72925;BME280;61070;50.794;7.054;2022-11-04T08:25:51;99950.66;;;8.65;100.00
72925;BME280;61070;50.794;7.054;2022-11-04T08:28:16;99939.06;;;8.75;100.00
72925;BME280;61070;50.794;7.054;2022-11-04T08:33:24;99950.06;;;9.00;99.71
72925;BME280;61070;50.794;7.054;2022-11-04T08:35:49;99963.25;;;9.02;99.83
72925;BME280;61070;50.794;7.054;2022-11-04T08:38:15;99960.44;;;9.11;99.95
72925;BME280;61070;50.794;7.054;2022-11-04T08:40:41;99961.06;;;9.25;98.98
72925;BME280;61070;50.794;7.054;2022-11-04T08:43:06;99960.84;;;9.36;99.02
72925;BME280;61070;50.794;7.054;2022-11-04T08:45:32;99960.69;;;9.45;98.48
72925;BME280;61070;50.794;7.054;2022-11-04T08:47:58;99963.19;;;9.53;98.72
72925;BME280;61070;50.794;7.054;2022-11-04T08:50:23;99954.22;;;9.60;98.33
72925;BME280;61070;50.794;7.054;2022-11-04T08:52:52;99953.50;;;9.53;98.79
72925;BME280;61070;50.794;7.054;2022-11-04T08:55:18;99958.78;;;9.53;99.38
72925;BME280;61070;50.794;7.054;2022-11-04T08:57:43;99965.72;;;9.57;99.18
72925;BME280;61070;50.794;7.054;2022-11-04T09:00:09;99949.03;;;9.55;98.73
72925;BME280;61070;50.794;7.054;2022-11-04T09:02:34;99950.75;;;9.58;98.62
72925;BME280;61070;50.794;7.054;2022-11-04T09:04:59;99954.97;;;9.67;98.55
72925;BME280;61070;50.794;7.054;2022-11-04T09:07:26;99954.81;;;9.76;99.13
72925;BME280;61070;50.794;7.054;2022-11-04T09:09:51;99944.91;;;9.84;98.54
72925;BME280;61070;50.794;7.054;2022-11-04T09:12:16;99952.56;;;9.98;99.05
72925;BME280;61070;50.794;7.054;2022-11-04T09:14:41;99942.38;;;10.19;98.51
72925;BME280;61070;50.794;7.054;2022-11-04T09:17:07;99943.09;;;10.28;98.70
72925;BME280;61070;50.794;7.054;2022-11-04T09:19:32;99943.69;;;10.40;98.52
72925;BME280;61070;50.794;7.054;2022-11-04T09:21:57;99940.72;;;10.54;96.91
72925;BME280;61070;50.794;7.054;2022-11-04T09:24:24;99950.38;;;10.57;96.88
72925;BME280;61070;50.794;7.054;2022-11-04T09:26:49;99944.00;;;10.65;96.62
72925;BME280;61070;50.794;7.054;2022-11-04T09:29:14;99942.09;;;10.70;95.97
72925;BME280;61070;50.794;7.054;2022-11-04T09:31:40;99947.00;;;10.86;94.55
72925;BME280;61070;50.794;7.054;2022-11-04T09:34:07;99939.78;;;10.92;94.83
72925;BME280;61070;50.794;7.054;2022-11-04T09:36:32;99940.63;;;10.93;94.43
72925;BME280;61070;50.794;7.054;2022-11-04T09:38:58;99940.34;;;11.03;93.87
72925;BME280;61070;50.794;7.054;2022-11-04T09:41:27;99932.50;;;11.00;93.36
72925;BME280;61070;50.794;7.054;2022-11-04T09:46:41;99943.94;;;11.02;92.32
72925;BME280;61070;50.794;7.054;2022-11-04T09:49:09;99955.25;;;11.07;93.06
72925;BME280;61070;50.794;7.054;2022-11-04T09:51:37;99947.16;;;11.14;92.60
72925;BME280;61070;50.794;7.054;2022-11-04T09:54:19;99951.94;;;11.33;92.00
72925;BME280;61070;50.794;7.054;2022-11-04T09:56:48;99949.69;;;11.51;91.47
72925;BME280;61070;50.794;7.054;2022-11-04T09:59:19;99949.47;;;11.58;90.13
72925;BME280;61070;50.794;7.054;2022-11-04T10:09:45;99960.13;;;11.89;86.76
72925;BME280;61070;50.794;7.054;2022-11-04T10:24:23;99975.94;;;12.22;84.30
72925;BME280;61070;50.794;7.054;2022-11-04T10:27:09;99978.25;;;12.33;84.24
72925;BME280;61070;50.794;7.054;2022-11-04T10:29:42;99970.41;;;12.30;82.04
72925;BME280;61070;50.794;7.054;2022-11-04T10:32:18;99977.16;;;12.40;82.64
72925;BME280;61070;50.794;7.054;2022-11-04T10:37:37;99984.69;;;12.53;82.09
72925;BME280;61070;50.794;7.054;2022-11-04T10:40:28;99968.97;;;12.47;82.22
72925;BME280;61070;50.794;7.054;2022-11-04T10:42:58;99986.53;;;12.51;82.16
72925;BME280;61070;50.794;7.054;2022-11-04T10:45:33;99988.22;;;12.54;81.23
72925;BME280;61070;50.794;7.054;2022-11-04T10:48:06;99984.13;;;12.44;81.95
72925;BME280;61070;50.794;7.054;2022-11-04T10:50:49;99985.41;;;12.60;81.44
72925;BME280;61070;50.794;7.054;2022-11-04T10:53:19;99992.44;;;12.61;81.02
72925;BME280;61070;50.794;7.054;2022-11-04T10:56:05;99989.09;;;12.54;81.37
72925;BME280;61070;50.794;7.054;2022-11-04T10:58:38;99987.22;;;12.58;81.38
72925;BME280;61070;50.794;7.054;2022-11-04T11:01:29;99997.00;;;12.58;80.84
72925;BME280;61070;50.794;7.054;2022-11-04T11:03:56;100001.44;;;12.57;82.03
72925;BME280;61070;50.794;7.054;2022-11-04T11:06:29;100000.31;;;12.64;81.17
72925;BME280;61070;50.794;7.054;2022-11-04T11:09:11;100006.94;;;12.51;81.00
72925;BME280;61070;50.794;7.054;2022-11-04T11:11:49;100003.50;;;12.47;80.44
72925;BME280;61070;50.794;7.054;2022-11-04T11:16:53;100001.03;;;12.41;79.84
72925;BME280;61070;50.794;7.054;2022-11-04T11:19:21;100001.19;;;12.37;81.81
72925;BME280;61070;50.794;7.054;2022-11-04T11:21:49;99994.78;;;12.42;81.05
72925;BME280;61070;50.794;7.054;2022-11-04T11:24:25;99998.09;;;12.50;78.88
72925;BME280;61070;50.794;7.054;2022-11-04T11:26:55;100002.19;;;12.61;78.29
72925;BME280;61070;50.794;7.054;2022-11-04T11:29:27;100000.59;;;12.55;78.15
72925;BME280;61070;50.794;7.054;2022-11-04T11:31:55;100004.81;;;12.62;79.07
72925;BME280;61070;50.794;7.054;2022-11-04T11:34:30;99995.91;;;12.63;77.77
72925;BME280;61070;50.794;7.054;2022-11-04T11:36:57;99999.66;;;12.58;77.30
72925;BME280;61070;50.794;7.054;2022-11-04T11:39:25;100009.63;;;12.49;78.81
72925;BME280;61070;50.794;7.054;2022-11-04T11:42:10;100001.78;;;12.46;76.76
72925;BME280;61070;50.794;7.054;2022-11-04T11:44:40;100002.81;;;12.41;77.64
72925;BME280;61070;50.794;7.054;2022-11-04T11:47:20;100005.75;;;12.32;78.12
72925;BME280;61070;50.794;7.054;2022-11-04T11:50:03;100001.13;;;12.38;76.74
72925;BME280;61070;50.794;7.054;2022-11-04T11:52:32;99996.09;;;12.29;78.56
72925;BME280;61070;50.794;7.054;2022-11-04T11:55:23;100004.78;;;12.34;78.55
72925;BME280;61070;50.794;7.054;2022-11-04T11:58:07;100002.28;;;12.30;79.01
72925;BME280;61070;50.794;7.054;2022-11-04T12:00:45;100012.03;;;12.29;78.26
72925;BME280;61070;50.794;7.054;2022-11-04T12:03:32;99995.91;;;12.35;78.45
72925;BME280;61070;50.794;7.054;2022-11-04T12:06:26;100008.06;;;12.42;77.70
72925;BME280;61070;50.794;7.054;2022-11-04T12:09:02;100001.38;;;12.59;77.77
72925;BME280;61070;50.794;7.054;2022-11-04T12:11:40;100009.41;;;12.57;77.17
72925;BME280;61070;50.794;7.054;2022-11-04T12:14:19;100000.53;;;12.85;77.56
72925;BME280;61070;50.794;7.054;2022-11-04T12:23:03;100017.38;;;13.11;73.53
72925;BME280;61070;50.794;7.054;2022-11-04T12:31:20;100016.84;;;13.78;71.80
72925;BME280;61070;50.794;7.054;2022-11-04T12:34:12;100012.19;;;13.85;70.90
72925;BME280;61070;50.794;7.054;2022-11-04T12:39:31;100025.25;;;13.91;69.62
72925;BME280;61070;50.794;7.054;2022-11-04T12:42:23;100022.50;;;13.94;69.49
72925;BME280;61070;50.794;7.054;2022-11-04T12:55:29;100027.19;;;13.62;68.82
72925;BME280;61070;50.794;7.054;2022-11-04T12:58:17;100033.88;;;13.49;68.39
72925;BME280;61070;50.794;7.054;2022-11-04T13:00:56;100030.53;;;13.43;68.50
72925;BME280;61070;50.794;7.054;2022-11-04T13:03:35;100028.63;;;13.46;69.92
72925;BME280;61070;50.794;7.054;2022-11-04T13:06:11;100037.25;;;13.28;69.83
72925;BME280;61070;50.794;7.054;2022-11-04T13:08:45;100034.59;;;13.28;69.86
72925;BME280;61070;50.794;7.054;2022-11-04T13:11:19;100040.38;;;13.12;71.17
72925;BME280;61070;50.794;7.054;2022-11-04T13:14:14;100040.88;;;12.97;73.65
72925;BME280;61070;50.794;7.054;2022-11-04T13:16:45;100049.16;;;12.88;71.99
72925;BME280;61070;50.794;7.054;2022-11-04T13:19:23;100047.56;;;12.82;72.50
72925;BME280;61070;50.794;7.054;2022-11-04T13:21:50;100063.38;;;12.87;73.58
72925;BME280;61070;50.794;7.054;2022-11-04T13:24:25;100055.69;;;12.78;74.75
72925;BME280;61070;50.794;7.054;2022-11-04T13:26:57;100063.47;;;12.84;75.72
72925;BME280;61070;50.794;7.054;2022-11-04T13:29:25;100057.78;;;12.67;78.77
72925;BME280;61070;50.794;7.054;2022-11-04T13:34:25;100064.66;;;12.46;81.00
72925;BME280;61070;50.794;7.054;2022-11-04T13:39:44;100067.06;;;12.24;81.23
72925;BME280;61070;50.794;7.054;2022-11-04T13:44:53;100075.16;;;12.19;80.94
72925;BME280;61070;50.794;7.054;2022-11-04T13:47:33;100074.28;;;12.19;81.27
72925;BME280;61070;50.794;7.054;2022-11-04T13:50:00;100084.19;;;12.14;80.61
72925;BME280;61070;50.794;7.054;2022-11-04T13:52:32;100086.94;;;12.09;80.94
72925;BME280;61070;50.794;7.054;2022-11-04T13:55:02;100085.44;;;12.01;80.93
72925;BME280;61070;50.794;7.054;2022-11-04T13:58:02;100093.66;;;11.91;80.73
72925;BME280;61070;50.794;7.054;2022-11-04T14:00:33;100108.59;;;11.94;81.02
72925;BME280;61070;50.794;7.054;2022-11-04T14:03:00;100098.09;;;11.91;81.50
72925;BME280;61070;50.794;7.054;2022-11-04T14:06:00;100098.13;;;11.89;82.04
72925;BME280;61070;50.794;7.054;2022-11-04T14:08:27;100096.44;;;11.85;80.54
72925;BME280;61070;50.794;7.054;2022-11-04T14:16:09;100113.41;;;11.80;81.36
72925;BME280;61070;50.794;7.054;2022-11-04T14:18:39;100121.34;;;11.81;82.36
72925;BME280;61070;50.794;7.054;2022-11-04T14:23:33;100123.16;;;11.79;82.72
72925;BME280;61070;50.794;7.054;2022-11-04T14:26:05;100130.16;;;11.82;83.68
72925;BME280;61070;50.794;7.054;2022-11-04T14:28:32;100124.81;;;11.83;82.86
72925;BME280;61070;50.794;7.054;2022-11-04T14:31:03;100132.50;;;11.94;82.29
72925;BME280;61070;50.794;7.054;2022-11-04T14:38:51;100147.38;;;12.00;85.43
72925;BME280;61070;50.794;7.054;2022-11-04T14:43:54;100150.47;;;11.83;88.20
72925;BME280;61070;50.794;7.054;2022-11-04T14:46:23;100151.22;;;11.88;87.22
72925;BME280;61070;50.794;7.054;2022-11-04T14:48:54;100161.88;;;11.86;88.55
72925;BME280;61070;50.794;7.054;2022-11-04T14:51:24;100169.88;;;11.85;88.22
72925;BME280;61070;50.794;7.054;2022-11-04T14:53:51;100165.63;;;11.79;89.49
72925;BME280;61070;50.794;7.054;2022-11-04T14:56:22;100174.47;;;11.77;89.37
72925;BME280;61070;50.794;7.054;2022-11-04T14:59:04;100179.69;;;11.83;89.35
72925;BME280;61070;50.794;7.054;2022-11-04T15:01:38;100173.56;;;11.78;89.36
72925;BME280;61070;50.794;7.054;2022-11-04T15:04:27;100177.22;;;11.74;88.91
72925;BME280;61070;50.794;7.054;2022-11-04T15:06:59;100188.00;;;11.66;89.16